createdAt,value
2018-03-31T15:10:21.634Z,29.86
2018-03-31T15:11:27.436Z,30.67
2018-03-31T15:12:32.182Z,31.19
2018-03-31T15:13:36.706Z,31.29
2018-03-31T15:14:41.043Z,31.50
2018-03-31T15:15:45.344Z,31.41
2018-03-31T15:16:49.671Z,31.40
2018-03-31T15:17:54.793Z,31.37
2018-03-31T15:18:58.763Z,31.15
2018-03-31T15:20:02.701Z,30.96
2018-03-31T15:21:06.681Z,30.73
2018-03-31T15:22:12.531Z,30.45
2018-03-31T15:23:17.139Z,30.19
2018-03-31T15:24:21.376Z,30.25
2018-03-31T15:25:25.592Z,30.09
2018-03-31T15:26:30.289Z,30.03
2018-03-31T15:27:35.372Z,30.00
2018-03-31T15:28:39.653Z,29.95
2018-03-31T15:29:43.679Z,29.92
2018-03-31T15:30:48.924Z,30.00
2018-03-31T15:31:52.820Z,30.08
2018-03-31T15:32:57.323Z,30.18
2018-03-31T15:34:03.347Z,30.25
2018-03-31T15:35:08.201Z,29.96
2018-03-31T15:36:13.036Z,30.05
2018-03-31T15:37:18.585Z,30.10
2018-03-31T15:38:25.172Z,30.04
2018-03-31T15:39:30.306Z,30.13
2018-03-31T15:40:34.738Z,31.09
2018-03-31T15:41:39.757Z,30.54
2018-03-31T15:42:45.699Z,31.45
2018-03-31T15:43:49.931Z,30.95
2018-03-31T15:44:54.644Z,30.98
2018-03-31T15:45:59.446Z,31.02
2018-03-31T15:47:03.629Z,31.12
2018-03-31T15:48:08.170Z,31.22
2018-03-31T15:49:12.174Z,31.04
2018-03-31T15:50:16.052Z,30.97
2018-03-31T15:51:20.018Z,31.02
2018-03-31T15:52:24.287Z,30.97
2018-03-31T15:53:29.776Z,31.05
2018-03-31T15:54:35.364Z,31.02
2018-03-31T15:55:42.823Z,31.02
2018-03-31T15:56:47.331Z,30.96
2018-03-31T15:57:51.879Z,30.91
2018-03-31T15:58:57.007Z,30.81
2018-03-31T16:00:01.261Z,30.78
2018-03-31T16:01:06.054Z,30.79
2018-03-31T16:02:10.395Z,30.77
2018-03-31T16:03:14.506Z,30.74
2018-03-31T16:04:18.366Z,30.75
2018-03-31T16:05:22.310Z,30.76
2018-03-31T16:06:26.628Z,30.80
2018-03-31T16:07:32.466Z,30.84
2018-03-31T16:08:37.469Z,30.86
2018-03-31T16:09:43.040Z,30.83
2018-03-31T16:10:48.908Z,30.87
2018-03-31T16:11:53.528Z,30.70
2018-03-31T16:12:58.130Z,30.55
2018-03-31T16:14:02.985Z,30.70
2018-03-31T16:15:07.183Z,30.59
2018-03-31T16:16:11.202Z,30.57
2018-03-31T16:17:15.009Z,30.52
2018-03-31T16:18:19.004Z,30.59
2018-03-31T16:19:23.308Z,30.34
2018-03-31T16:20:27.892Z,29.93
2018-03-31T16:21:33.232Z,29.92
2018-03-31T16:22:39.008Z,30.09
2018-03-31T16:23:44.362Z,30.22
2018-03-31T16:24:49.856Z,30.25
2018-03-31T16:25:54.650Z,30.27
2018-03-31T16:27:00.329Z,30.33
2018-03-31T16:28:05.311Z,30.42
2018-03-31T16:29:09.781Z,30.47
2018-03-31T16:30:13.877Z,30.35
2018-03-31T16:31:18.037Z,30.31
2018-03-31T16:32:22.207Z,30.29
2018-03-31T16:33:26.238Z,30.32
2018-03-31T16:34:30.713Z,30.54
2018-03-31T16:35:35.464Z,30.50
2018-03-31T16:36:42.750Z,30.62
2018-03-31T16:37:47.257Z,30.61
2018-03-31T16:38:52.481Z,30.57
2018-03-31T16:39:57.603Z,30.36
2018-03-31T16:41:02.214Z,30.29
2018-03-31T16:42:07.945Z,30.36
2018-03-31T16:43:12.685Z,30.35
2018-03-31T16:44:17.806Z,30.36
2018-03-31T16:45:21.813Z,30.31
2018-03-31T16:46:25.858Z,30.29
2018-03-31T16:47:30.025Z,30.30
2018-03-31T16:48:33.947Z,30.36
2018-03-31T16:49:38.203Z,30.41
2018-03-31T16:50:42.941Z,30.40
2018-03-31T16:51:47.318Z,30.18
2018-03-31T16:52:52.232Z,30.24
2018-03-31T16:53:57.179Z,30.28
2018-03-31T16:55:01.366Z,30.28
2018-03-31T16:56:06.039Z,30.37
2018-03-31T16:57:10.118Z,30.45
2018-03-31T16:58:14.111Z,32.30
2018-03-31T16:59:18.124Z,31.03
2018-03-31T17:00:22.312Z,31.77
2018-03-31T17:01:29.246Z,30.92
2018-03-31T17:02:34.360Z,30.83
2018-03-31T17:03:39.533Z,30.86
2018-03-31T17:04:44.064Z,30.79
2018-03-31T17:05:49.003Z,30.76
2018-03-31T17:06:54.498Z,30.84
2018-03-31T17:07:59.620Z,30.82
2018-03-31T17:09:05.543Z,30.80
2018-03-31T17:10:10.542Z,30.79
2018-03-31T17:11:14.843Z,30.78
2018-03-31T17:12:18.899Z,30.81
2018-03-31T17:13:22.968Z,30.82
2018-03-31T17:14:27.191Z,30.85
2018-03-31T17:15:31.287Z,30.81
2018-03-31T17:16:35.666Z,30.77
2018-03-31T17:17:40.617Z,30.76
2018-03-31T17:18:45.421Z,30.75
2018-03-31T17:19:49.386Z,30.80
2018-03-31T17:20:53.204Z,30.78
2018-03-31T17:21:57.488Z,30.75
2018-03-31T17:23:02.952Z,30.76
2018-03-31T17:24:09.169Z,30.72
2018-03-31T17:25:15.278Z,30.76
2018-03-31T17:26:19.364Z,30.75
2018-03-31T17:27:24.147Z,30.82
2018-03-31T17:28:28.657Z,30.86
2018-03-31T17:29:33.247Z,30.86
2018-03-31T17:30:39.126Z,30.75
2018-03-31T17:31:45.554Z,30.76
2018-03-31T17:32:50.991Z,30.80
2018-03-31T17:33:56.278Z,30.78
2018-03-31T17:35:00.904Z,30.71
2018-03-31T17:36:05.015Z,30.75
2018-03-31T17:37:10.518Z,30.75
2018-03-31T17:38:14.674Z,30.78
2018-03-31T17:39:18.592Z,30.74
2018-03-31T17:40:22.572Z,30.75
2018-03-31T17:41:26.859Z,30.77
2018-03-31T17:42:30.719Z,30.76
2018-03-31T17:43:35.061Z,30.80
2018-03-31T17:44:39.908Z,30.85
2018-03-31T17:45:45.372Z,30.82
2018-03-31T17:46:50.835Z,30.79
2018-03-31T17:47:57.559Z,30.77
2018-03-31T17:49:02.023Z,30.82
2018-03-31T17:50:06.481Z,30.75
2018-03-31T17:51:10.853Z,30.75
2018-03-31T17:52:14.918Z,30.71
2018-03-31T17:53:18.912Z,30.67
2018-03-31T17:54:23.304Z,30.61
2018-03-31T17:55:27.370Z,30.66
2018-03-31T17:56:32.192Z,30.71
2018-03-31T17:57:36.808Z,30.67
2018-03-31T17:58:42.137Z,30.69
2018-03-31T17:59:47.476Z,30.63
2018-03-31T18:00:52.076Z,30.65
2018-03-31T18:01:57.031Z,30.65
2018-03-31T18:03:01.050Z,30.64
2018-03-31T18:04:06.103Z,30.66
2018-03-31T18:05:10.053Z,30.68
2018-03-31T18:06:14.098Z,30.79
2018-03-31T18:07:18.530Z,31.02
2018-03-31T18:08:23.720Z,30.85
2018-03-31T18:09:27.948Z,30.83
2018-03-31T18:10:32.850Z,30.77
2018-03-31T18:11:36.983Z,30.76
2018-03-31T18:12:42.023Z,30.73
2018-03-31T18:13:47.070Z,30.78
2018-03-31T18:14:51.483Z,30.79
2018-03-31T18:15:55.429Z,30.86
2018-03-31T18:16:59.336Z,30.84
2018-03-31T18:18:03.391Z,30.81
2018-03-31T18:19:07.522Z,30.85
2018-03-31T18:20:12.581Z,30.82
2018-03-31T18:21:17.022Z,30.83
2018-03-31T18:22:22.804Z,30.89
2018-03-31T18:23:28.789Z,30.90
2018-03-31T18:24:33.418Z,30.91
2018-03-31T18:25:38.992Z,30.84
2018-03-31T18:26:44.549Z,30.87
2018-03-31T18:27:49.072Z,30.88
2018-03-31T18:28:53.827Z,30.88
2018-03-31T18:29:58.322Z,30.84
2018-03-31T18:31:02.137Z,30.80
2018-03-31T18:32:05.988Z,30.82
2018-03-31T18:33:10.339Z,30.81
2018-03-31T18:34:14.498Z,30.81
2018-03-31T18:35:19.736Z,30.74
2018-03-31T18:36:23.955Z,30.81
2018-03-31T18:37:28.350Z,30.80
2018-03-31T18:38:34.112Z,30.79
2018-03-31T18:39:38.928Z,30.79
2018-03-31T18:40:44.091Z,30.83
2018-03-31T18:41:48.219Z,30.82
2018-03-31T18:42:52.235Z,30.82
2018-03-31T18:43:56.382Z,30.82
2018-03-31T18:45:00.315Z,30.79
2018-03-31T18:46:04.825Z,30.80
2018-03-31T18:47:08.914Z,30.80
2018-03-31T18:48:13.233Z,30.83
2018-03-31T18:49:18.324Z,30.81
2018-03-31T18:50:22.829Z,30.80
2018-03-31T18:51:27.817Z,30.83
2018-03-31T18:52:32.993Z,30.82
2018-03-31T18:53:40.079Z,30.86
2018-03-31T18:54:48.564Z,30.82
2018-03-31T18:55:53.419Z,30.87
2018-03-31T18:56:58.532Z,30.85
2018-03-31T18:58:03.407Z,30.85
2018-03-31T18:59:09.070Z,30.88
2018-03-31T19:00:13.743Z,30.89
2018-03-31T19:01:19.543Z,30.89
2018-03-31T19:02:23.737Z,30.90
2018-03-31T19:03:29.919Z,30.91
2018-03-31T19:04:37.078Z,30.93
2018-03-31T19:05:43.594Z,30.93
2018-03-31T19:06:48.465Z,30.98
2018-03-31T19:07:52.923Z,30.92
2018-03-31T19:08:57.207Z,30.91
2018-03-31T19:10:01.904Z,30.89
2018-03-31T19:11:07.445Z,30.90
2018-03-31T19:12:12.203Z,30.92
2018-03-31T19:13:16.703Z,30.97
2018-03-31T19:14:20.876Z,30.94
2018-03-31T19:15:25.567Z,30.89
2018-03-31T19:16:34.395Z,30.94
2018-03-31T19:17:39.122Z,30.95
2018-03-31T19:18:43.495Z,30.94
2018-03-31T19:19:47.561Z,30.95
2018-03-31T19:20:51.401Z,30.94
2018-03-31T19:21:55.360Z,30.97
2018-03-31T19:22:59.625Z,30.96
2018-03-31T19:24:04.402Z,30.99
2018-03-31T19:25:15.328Z,30.95
2018-03-31T19:26:19.251Z,30.96
2018-03-31T19:27:23.163Z,31.00
2018-03-31T19:28:27.386Z,31.01
2018-03-31T19:32:16.325Z,30.95
2018-03-31T19:33:20.566Z,30.96
2018-03-31T19:34:25.770Z,31.00
2018-03-31T19:35:33.897Z,30.95
2018-03-31T19:36:38.426Z,30.94
2018-03-31T19:37:43.537Z,30.95
2018-03-31T19:38:48.622Z,30.96
2018-03-31T19:39:53.867Z,31.01
2018-03-31T19:40:59.006Z,30.98
2018-03-31T19:42:03.205Z,30.98
2018-03-31T19:43:07.065Z,30.98
2018-03-31T19:44:10.976Z,30.98
2018-03-31T19:45:15.245Z,30.97
2018-03-31T19:46:19.149Z,30.97
2018-03-31T19:47:22.992Z,30.97
2018-03-31T19:48:27.124Z,31.05
2018-03-31T19:49:32.276Z,31.03
2018-03-31T19:50:36.932Z,31.04
2018-03-31T19:51:43.231Z,31.01
2018-03-31T19:52:47.907Z,31.04
2018-03-31T19:53:52.695Z,31.05
2018-03-31T19:54:57.467Z,31.04
2018-03-31T19:56:01.522Z,31.02
2018-03-31T19:57:05.724Z,31.03
2018-03-31T19:58:09.897Z,31.00
2018-03-31T19:59:13.857Z,31.01
2018-03-31T20:00:17.788Z,30.99
2018-03-31T20:01:22.612Z,31.04
2018-03-31T20:02:28.506Z,31.00
2018-03-31T20:03:33.061Z,31.01
2018-03-31T20:04:39.709Z,31.01
2018-03-31T20:05:46.203Z,30.98
2018-03-31T20:06:51.246Z,31.00
2018-03-31T20:07:55.692Z,30.96
2018-03-31T20:09:01.413Z,30.97
2018-03-31T20:10:06.484Z,30.99
2018-03-31T20:11:12.482Z,31.01
2018-03-31T20:12:17.432Z,31.03
2018-03-31T20:13:22.250Z,31.01
2018-03-31T20:14:26.331Z,31.01
2018-03-31T20:15:30.263Z,31.03
2018-03-31T20:16:34.304Z,31.04
2018-03-31T20:17:38.559Z,31.04
2018-03-31T20:18:42.544Z,31.04
2018-03-31T20:19:47.932Z,31.02
2018-03-31T20:20:52.479Z,31.05
2018-03-31T20:21:57.851Z,31.02
2018-03-31T20:23:03.123Z,31.05
2018-03-31T20:24:07.834Z,31.08
2018-03-31T20:25:13.755Z,31.08
2018-03-31T20:26:18.192Z,31.11
2018-03-31T20:27:22.494Z,31.04
2018-03-31T20:28:27.309Z,31.07
2018-03-31T20:29:31.641Z,31.03
2018-03-31T20:30:36.066Z,31.07
2018-03-31T20:31:40.613Z,31.08
2018-03-31T20:32:44.649Z,31.08
2018-03-31T20:33:48.605Z,31.09
2018-03-31T20:35:03.649Z,31.07
2018-03-31T20:36:08.078Z,31.09
2018-03-31T20:37:14.887Z,31.15
2018-03-31T20:38:18.965Z,31.10
2018-03-31T20:39:23.672Z,31.12
2018-03-31T20:40:28.494Z,31.17
2018-03-31T20:41:32.815Z,31.16
2018-03-31T20:42:37.252Z,31.14
2018-03-31T20:43:41.120Z,31.13
2018-03-31T20:44:44.993Z,31.10
2018-03-31T20:45:48.889Z,31.11
2018-03-31T20:46:52.687Z,31.12
2018-03-31T20:47:57.098Z,31.14
2018-03-31T20:49:03.300Z,31.11
2018-03-31T20:50:07.378Z,31.10
2018-03-31T20:51:12.452Z,31.13
2018-03-31T20:52:19.336Z,31.17
2018-03-31T20:53:24.480Z,31.17
2018-03-31T20:54:28.795Z,31.20
2018-03-31T20:55:33.826Z,31.20
2018-03-31T20:56:38.305Z,31.21
2018-03-31T20:57:42.476Z,31.22
2018-03-31T20:58:46.692Z,31.19
2018-03-31T20:59:50.546Z,31.17
2018-03-31T21:00:54.486Z,31.18
2018-03-31T21:01:59.092Z,31.08
2018-03-31T21:03:05.128Z,31.21
2018-03-31T21:04:09.085Z,31.20
2018-03-31T21:05:13.138Z,31.20
2018-03-31T21:06:17.160Z,31.21
2018-03-31T21:07:21.405Z,31.20
2018-03-31T21:08:25.643Z,31.25
2018-03-31T21:09:29.564Z,31.22
2018-03-31T21:10:33.653Z,31.20
2018-03-31T21:11:37.530Z,31.21
2018-03-31T21:12:41.433Z,31.23
2018-03-31T21:13:46.572Z,31.25
2018-03-31T21:14:50.920Z,31.24
2018-03-31T21:15:54.822Z,31.24
2018-03-31T21:16:59.816Z,31.23
2018-03-31T21:18:03.939Z,31.24
2018-03-31T21:19:07.947Z,31.25
2018-03-31T21:20:11.926Z,31.24
2018-03-31T21:21:16.249Z,31.26
2018-03-31T21:22:20.398Z,31.26
2018-03-31T21:23:24.748Z,31.26
2018-03-31T21:24:28.804Z,31.27
2018-03-31T21:25:32.851Z,31.25
2018-03-31T21:26:37.082Z,31.27
2018-03-31T21:27:41.270Z,31.25
2018-03-31T21:28:45.141Z,31.27
2018-03-31T21:29:49.184Z,31.27
2018-03-31T21:30:53.261Z,31.29
2018-03-31T21:31:57.124Z,31.27
2018-03-31T21:33:01.191Z,31.40
2018-03-31T21:34:05.455Z,30.82
2018-03-31T21:35:09.217Z,30.71
2018-03-31T21:36:13.108Z,31.01
2018-03-31T21:37:16.920Z,31.45
2018-03-31T21:38:21.509Z,31.78
2018-03-31T21:39:25.878Z,32.17
2018-03-31T21:40:30.037Z,32.49
2018-03-31T21:41:33.948Z,32.66
2018-03-31T21:42:37.852Z,33.02
2018-03-31T21:43:41.761Z,32.98
2018-03-31T21:44:45.757Z,32.99
2018-03-31T21:45:50.189Z,33.39
2018-03-31T21:46:54.480Z,33.59
2018-03-31T21:47:58.993Z,33.64
2018-03-31T21:49:03.992Z,33.72
2018-03-31T21:50:08.002Z,33.62
2018-03-31T21:51:11.976Z,33.75
2018-03-31T21:52:15.944Z,33.88
2018-03-31T21:53:19.711Z,33.96
2018-03-31T21:54:23.808Z,34.18
2018-03-31T21:55:27.832Z,34.25
2018-03-31T21:56:32.039Z,34.40
2018-03-31T21:57:37.510Z,34.63
2018-03-31T21:58:41.356Z,34.69
2018-03-31T21:59:45.318Z,34.73
2018-03-31T22:00:51.394Z,34.98
2018-03-31T22:01:55.277Z,35.07
2018-03-31T22:02:59.461Z,35.08
2018-03-31T22:04:04.202Z,35.26
2018-03-31T22:05:09.411Z,35.51
2018-03-31T22:06:13.291Z,35.32
2018-03-31T22:07:19.097Z,35.99
2018-03-31T22:08:23.254Z,36.20
2018-03-31T22:09:27.366Z,36.18
2018-03-31T22:10:31.942Z,36.23
2018-03-31T22:11:35.726Z,36.11
2018-03-31T22:12:39.672Z,36.00
2018-03-31T22:13:47.692Z,35.89
2018-03-31T22:15:55.092Z,35.68
2018-03-31T22:16:59.360Z,35.33
2018-03-31T22:18:03.385Z,35.28
2018-03-31T22:19:07.370Z,35.31
2018-03-31T22:20:11.276Z,35.18
2018-03-31T22:21:15.182Z,35.13
2018-03-31T22:22:19.298Z,34.93
2018-03-31T22:23:23.410Z,34.86
2018-03-31T22:24:27.356Z,34.83
2018-03-31T22:25:31.199Z,34.73
2018-03-31T22:26:35.118Z,34.75
2018-03-31T22:27:38.959Z,34.69
2018-03-31T22:28:43.426Z,34.66
2018-03-31T22:29:47.402Z,34.52
2018-03-31T22:30:51.300Z,34.46
2018-03-31T22:31:55.440Z,34.45
2018-03-31T22:32:59.414Z,34.32
2018-03-31T22:34:03.445Z,34.37
2018-03-31T22:35:08.002Z,34.29
2018-03-31T22:36:11.852Z,34.23
2018-03-31T22:37:15.711Z,34.25
2018-03-31T22:38:21.606Z,34.21
2018-03-31T22:39:26.108Z,34.14
2018-03-31T22:40:30.116Z,34.10
2018-03-31T22:41:34.990Z,34.08
2018-03-31T22:42:38.918Z,33.98
2018-03-31T22:43:42.999Z,34.04
2018-03-31T22:44:47.543Z,34.02
2018-03-31T22:45:51.613Z,34.01
2018-03-31T22:46:55.511Z,34.03
2018-03-31T22:47:59.666Z,34.00
2018-03-31T22:49:03.717Z,33.89
2018-03-31T22:50:07.766Z,33.90
2018-03-31T22:51:11.782Z,33.95
2018-03-31T22:52:15.890Z,33.91
2018-03-31T22:53:20.039Z,33.95
2018-03-31T22:54:24.042Z,33.96
2018-03-31T22:55:27.989Z,34.00
2018-03-31T22:56:31.953Z,33.99
2018-03-31T22:57:35.892Z,34.01
2018-03-31T22:58:39.898Z,34.03
2018-03-31T22:59:44.426Z,34.06
2018-03-31T23:00:48.473Z,34.08
2018-03-31T23:01:52.467Z,34.04
2018-03-31T23:02:57.041Z,34.09
2018-03-31T23:04:01.484Z,34.10
2018-03-31T23:05:05.561Z,34.13
2018-03-31T23:06:09.514Z,34.09
2018-03-31T23:07:13.446Z,34.07
2018-03-31T23:08:17.494Z,34.07
2018-03-31T23:09:21.771Z,34.08
2018-03-31T23:10:25.813Z,34.08
2018-03-31T23:11:29.897Z,34.08
2018-03-31T23:12:33.969Z,34.03
2018-03-31T23:13:38.246Z,34.06
2018-03-31T23:14:43.687Z,34.05
2018-03-31T23:15:49.169Z,34.04
2018-03-31T23:16:53.766Z,34.04
2018-03-31T23:18:00.012Z,34.04
2018-03-31T23:19:04.018Z,34.06
2018-03-31T23:20:07.994Z,34.03
2018-03-31T23:21:11.958Z,34.04
2018-03-31T23:22:15.929Z,34.08
2018-03-31T23:23:21.068Z,34.10
2018-03-31T23:24:25.841Z,34.11
2018-03-31T23:25:30.490Z,34.11
2018-03-31T23:26:34.916Z,34.16
2018-03-31T23:27:40.148Z,34.12
2018-03-31T23:28:44.264Z,34.16
2018-03-31T23:29:48.349Z,34.19
2018-03-31T23:30:52.786Z,34.12
2018-03-31T23:31:56.779Z,34.16
2018-03-31T23:33:00.762Z,34.17
2018-03-31T23:34:04.916Z,34.15
2018-03-31T23:35:09.020Z,34.18
2018-03-31T23:36:13.041Z,34.18
2018-03-31T23:37:17.407Z,34.19
2018-03-31T23:38:21.493Z,34.24
2018-03-31T23:39:25.632Z,34.18
2018-03-31T23:40:29.593Z,34.22
2018-03-31T23:41:33.593Z,34.28
2018-03-31T23:42:37.656Z,34.28
2018-03-31T23:43:42.724Z,34.27
2018-03-31T23:44:47.675Z,34.28
2018-03-31T23:45:52.082Z,34.28
2018-03-31T23:46:55.945Z,34.27
2018-03-31T23:48:00.097Z,34.32
2018-03-31T23:49:04.513Z,34.29
2018-03-31T23:50:09.056Z,34.30
2018-03-31T23:51:13.192Z,34.25
2018-03-31T23:52:17.286Z,34.25
2018-03-31T23:53:21.425Z,34.27
2018-03-31T23:54:25.365Z,34.30
2018-03-31T23:55:29.330Z,34.28
2018-03-31T23:56:33.604Z,34.29
2018-03-31T23:57:37.616Z,34.32
2018-03-31T23:58:41.800Z,34.34
2018-03-31T23:59:45.721Z,34.35
